sensor_id;sensor_type;location;lat;lon;timestamp;P1;P2;P0
59179;PMS7003;44956;52.422;20.818;2023-04-25T00:01:22;50.50;42.50;26.75
59179;PMS7003;44956;52.422;20.818;2023-04-25T00:04:24;47.75;42.75;25.50
59179;PMS7003;44956;52.422;20.818;2023-04-25T00:07:28;51.50;44.00;26.50
59179;PMS7003;44956;52.422;20.818;2023-04-25T00:10:31;46.00;40.50;25.00
59179;PMS7003;44956;52.422;20.818;2023-04-25T00:13:33;48.50;42.00;26.00
59179;PMS7003;44956;52.422;20.818;2023-04-25T00:16:36;52.50;43.25;26.75
59179;PMS7003;44956;52.422;20.818;2023-04-25T00:19:38;46.75;39.25;25.00
59179;PMS7003;44956;52.422;20.818;2023-04-25T00:22:41;59.50;46.25;27.25
59179;PMS7003;44956;52.422;20.818;2023-04-25T00:25:44;45.25;41.00;28.00
59179;PMS7003;44956;52.422;20.818;2023-04-25T00:28:48;54.50;45.75;28.00
59179;PMS7003;44956;52.422;20.818;2023-04-25T00:31:50;45.00;40.00;26.25
59179;PMS7003;44956;52.422;20.818;2023-04-25T00:34:53;55.00;44.25;27.25
59179;PMS7003;44956;52.422;20.818;2023-04-25T00:37:58;54.25;43.50;28.00
59179;PMS7003;44956;52.422;20.818;2023-04-25T00:41:00;50.25;44.00;26.00
59179;PMS7003;44956;52.422;20.818;2023-04-25T00:44:03;42.75;40.25;25.00
59179;PMS7003;44956;52.422;20.818;2023-04-25T00:47:06;43.25;39.75;24.75
59179;PMS7003;44956;52.422;20.818;2023-04-25T00:50:09;47.50;42.00;27.00
59179;PMS7003;44956;52.422;20.818;2023-04-25T00:53:12;49.00;39.50;26.50
59179;PMS7003;44956;52.422;20.818;2023-04-25T00:56:15;52.00;40.75;25.50
59179;PMS7003;44956;52.422;20.818;2023-04-25T00:59:19;51.25;43.50;28.00
59179;PMS7003;44956;52.422;20.818;2023-04-25T01:02:22;48.75;41.50;25.50
59179;PMS7003;44956;52.422;20.818;2023-04-25T01:05:25;43.50;39.50;25.25
59179;PMS7003;44956;52.422;20.818;2023-04-25T01:08:27;47.75;41.00;25.50
59179;PMS7003;44956;52.422;20.818;2023-04-25T01:11:30;38.00;36.25;22.75
59179;PMS7003;44956;52.422;20.818;2023-04-25T01:14:33;45.75;39.00;27.00
59179;PMS7003;44956;52.422;20.818;2023-04-25T01:17:35;45.25;36.25;24.00
59179;PMS7003;44956;52.422;20.818;2023-04-25T01:20:38;42.75;39.50;24.00
59179;PMS7003;44956;52.422;20.818;2023-04-25T01:23:42;47.75;41.75;25.25
59179;PMS7003;44956;52.422;20.818;2023-04-25T01:26:45;47.50;36.50;23.25
59179;PMS7003;44956;52.422;20.818;2023-04-25T01:29:56;42.00;38.00;25.00
59179;PMS7003;44956;52.422;20.818;2023-04-25T01:32:59;39.75;35.25;23.00
59179;PMS7003;44956;52.422;20.818;2023-04-25T01:36:03;39.25;33.00;22.50
59179;PMS7003;44956;52.422;20.818;2023-04-25T01:39:06;42.75;37.25;24.00
59179;PMS7003;44956;52.422;20.818;2023-04-25T01:42:09;41.25;38.25;25.25
59179;PMS7003;44956;52.422;20.818;2023-04-25T01:45:11;37.50;35.25;22.50
59179;PMS7003;44956;52.422;20.818;2023-04-25T01:48:14;39.75;35.00;23.00
59179;PMS7003;44956;52.422;20.818;2023-04-25T01:51:18;42.00;38.25;24.00
59179;PMS7003;44956;52.422;20.818;2023-04-25T01:54:21;43.00;38.00;23.00
59179;PMS7003;44956;52.422;20.818;2023-04-25T01:57:24;37.00;35.00;23.50
59179;PMS7003;44956;52.422;20.818;2023-04-25T02:00:27;39.50;37.50;24.00
59179;PMS7003;44956;52.422;20.818;2023-04-25T02:03:31;52.25;41.25;23.75
59179;PMS7003;44956;52.422;20.818;2023-04-25T02:06:35;43.50;37.50;24.50
59179;PMS7003;44956;52.422;20.818;2023-04-25T02:09:38;46.75;41.25;23.50
59179;PMS7003;44956;52.422;20.818;2023-04-25T02:12:42;48.75;38.25;23.75
59179;PMS7003;44956;52.422;20.818;2023-04-25T02:15:58;49.00;41.00;26.00
59179;PMS7003;44956;52.422;20.818;2023-04-25T02:19:02;51.75;43.00;24.50
59179;PMS7003;44956;52.422;20.818;2023-04-25T02:22:05;37.50;35.75;21.75
59179;PMS7003;44956;52.422;20.818;2023-04-25T02:25:08;44.75;38.25;24.75
59179;PMS7003;44956;52.422;20.818;2023-04-25T02:28:11;40.75;39.00;24.25
59179;PMS7003;44956;52.422;20.818;2023-04-25T02:31:14;49.75;40.25;26.25
59179;PMS7003;44956;52.422;20.818;2023-04-25T02:34:16;43.25;37.75;24.25
59179;PMS7003;44956;52.422;20.818;2023-04-25T02:37:19;43.25;40.25;26.00
59179;PMS7003;44956;52.422;20.818;2023-04-25T02:40:22;42.00;35.75;22.50
59179;PMS7003;44956;52.422;20.818;2023-04-25T02:43:25;44.75;39.75;23.75
59179;PMS7003;44956;52.422;20.818;2023-04-25T02:46:27;45.25;40.75;24.50
59179;PMS7003;44956;52.422;20.818;2023-04-25T02:49:41;39.00;32.50;22.75
59179;PMS7003;44956;52.422;20.818;2023-04-25T02:52:44;44.50;40.75;25.50
59179;PMS7003;44956;52.422;20.818;2023-04-25T02:55:57;36.50;34.75;21.25
59179;PMS7003;44956;52.422;20.818;2023-04-25T02:59:01;41.00;37.50;22.75
59179;PMS7003;44956;52.422;20.818;2023-04-25T03:02:05;42.25;39.50;24.00
59179;PMS7003;44956;52.422;20.818;2023-04-25T03:05:07;38.75;37.75;24.50
59179;PMS7003;44956;52.422;20.818;2023-04-25T03:08:12;43.00;35.75;23.00
59179;PMS7003;44956;52.422;20.818;2023-04-25T03:11:14;52.75;40.25;22.00
59179;PMS7003;44956;52.422;20.818;2023-04-25T03:14:18;34.50;32.00;19.00
59179;PMS7003;44956;52.422;20.818;2023-04-25T03:17:20;45.50;39.00;24.25
59179;PMS7003;44956;52.422;20.818;2023-04-25T03:20:24;39.00;38.75;23.25
59179;PMS7003;44956;52.422;20.818;2023-04-25T03:23:26;47.00;41.25;25.00
59179;PMS7003;44956;52.422;20.818;2023-04-25T03:26:29;43.00;39.00;25.00
59179;PMS7003;44956;52.422;20.818;2023-04-25T03:29:34;42.75;38.50;23.25
59179;PMS7003;44956;52.422;20.818;2023-04-25T03:32:38;41.00;37.00;21.00
59179;PMS7003;44956;52.422;20.818;2023-04-25T03:35:41;47.00;39.75;24.00
59179;PMS7003;44956;52.422;20.818;2023-04-25T03:38:45;29.75;27.25;19.00
59179;PMS7003;44956;52.422;20.818;2023-04-25T03:41:49;33.50;30.25;21.00
59179;PMS7003;44956;52.422;20.818;2023-04-25T03:44:54;33.75;29.25;18.00
59179;PMS7003;44956;52.422;20.818;2023-04-25T03:47:56;37.00;32.25;19.25
59179;PMS7003;44956;52.422;20.818;2023-04-25T03:51:01;34.00;30.75;17.25
59179;PMS7003;44956;52.422;20.818;2023-04-25T03:54:07;31.50;28.75;18.00
59179;PMS7003;44956;52.422;20.818;2023-04-25T03:57:30;26.50;23.50;14.75
59179;PMS7003;44956;52.422;20.818;2023-04-25T04:00:33;29.75;28.25;16.25
59179;PMS7003;44956;52.422;20.818;2023-04-25T04:03:36;38.50;30.00;16.00
59179;PMS7003;44956;52.422;20.818;2023-04-25T04:06:39;27.75;25.00;15.00
59179;PMS7003;44956;52.422;20.818;2023-04-25T04:09:48;28.00;24.25;15.50
59179;PMS7003;44956;52.422;20.818;2023-04-25T04:13:00;23.25;22.50;13.25
59179;PMS7003;44956;52.422;20.818;2023-04-25T04:16:02;30.25;29.00;15.25
59179;PMS7003;44956;52.422;20.818;2023-04-25T04:19:07;28.50;24.75;15.00
59179;PMS7003;44956;52.422;20.818;2023-04-25T04:22:11;28.25;24.50;11.75
59179;PMS7003;44956;52.422;20.818;2023-04-25T04:25:14;31.00;27.25;18.25
59179;PMS7003;44956;52.422;20.818;2023-04-25T04:28:36;36.75;31.50;18.00
59179;PMS7003;44956;52.422;20.818;2023-04-25T04:31:51;34.75;30.75;18.50
59179;PMS7003;44956;52.422;20.818;2023-04-25T04:34:55;40.25;34.25;20.75
59179;PMS7003;44956;52.422;20.818;2023-04-25T04:37:59;40.25;36.25;21.50
59179;PMS7003;44956;52.422;20.818;2023-04-25T04:41:06;41.50;36.00;22.25
59179;PMS7003;44956;52.422;20.818;2023-04-25T04:44:21;35.25;33.25;19.50
59179;PMS7003;44956;52.422;20.818;2023-04-25T04:47:40;34.25;32.75;19.50
59179;PMS7003;44956;52.422;20.818;2023-04-25T04:50:50;32.00;31.25;20.00
59179;PMS7003;44956;52.422;20.818;2023-04-25T04:54:11;37.25;31.75;19.50
59179;PMS7003;44956;52.422;20.818;2023-04-25T04:57:44;38.50;36.50;19.75
59179;PMS7003;44956;52.422;20.818;2023-04-25T05:01:06;37.75;31.25;19.75
59179;PMS7003;44956;52.422;20.818;2023-04-25T05:04:30;40.75;34.50;18.75
59179;PMS7003;44956;52.422;20.818;2023-04-25T05:07:56;34.00;32.75;19.25
59179;PMS7003;44956;52.422;20.818;2023-04-25T05:11:08;37.50;36.50;20.50
59179;PMS7003;44956;52.422;20.818;2023-04-25T05:14:37;32.25;29.25;16.75
59179;PMS7003;44956;52.422;20.818;2023-04-25T05:18:02;38.50;35.50;20.00
59179;PMS7003;44956;52.422;20.818;2023-04-25T05:21:19;37.25;36.00;19.75
59179;PMS7003;44956;52.422;20.818;2023-04-25T05:24:44;37.25;33.50;19.50
59179;PMS7003;44956;52.422;20.818;2023-04-25T05:28:05;36.25;33.00;18.25
59179;PMS7003;44956;52.422;20.818;2023-04-25T05:31:26;32.75;31.75;19.50
59179;PMS7003;44956;52.422;20.818;2023-04-25T05:34:48;29.00;28.00;19.00
59179;PMS7003;44956;52.422;20.818;2023-04-25T05:37:57;33.75;29.50;17.00
59179;PMS7003;44956;52.422;20.818;2023-04-25T05:41:19;30.25;30.00;19.00
59179;PMS7003;44956;52.422;20.818;2023-04-25T05:44:35;30.00;25.50;15.00
59179;PMS7003;44956;52.422;20.818;2023-04-25T05:48:03;35.00;30.50;19.25
59179;PMS7003;44956;52.422;20.818;2023-04-25T05:51:18;35.00;29.00;19.25
59179;PMS7003;44956;52.422;20.818;2023-04-25T05:54:41;38.75;33.75;20.75
59179;PMS7003;44956;52.422;20.818;2023-04-25T05:57:43;30.25;29.50;18.50
59179;PMS7003;44956;52.422;20.818;2023-04-25T06:00:51;31.75;30.50;17.00
59179;PMS7003;44956;52.422;20.818;2023-04-25T06:03:53;27.25;24.25;16.00
59179;PMS7003;44956;52.422;20.818;2023-04-25T06:06:57;30.75;27.25;16.00
59179;PMS7003;44956;52.422;20.818;2023-04-25T06:09:59;34.00;27.50;16.50
59179;PMS7003;44956;52.422;20.818;2023-04-25T06:13:03;33.25;29.00;17.00
59179;PMS7003;44956;52.422;20.818;2023-04-25T06:16:09;26.75;25.25;16.00
59179;PMS7003;44956;52.422;20.818;2023-04-25T06:19:13;31.75;30.50;17.00
59179;PMS7003;44956;52.422;20.818;2023-04-25T06:22:18;29.75;25.00;16.00
59179;PMS7003;44956;52.422;20.818;2023-04-25T06:25:31;32.75;30.75;18.25
59179;PMS7003;44956;52.422;20.818;2023-04-25T06:28:34;27.25;24.25;15.00
59179;PMS7003;44956;52.422;20.818;2023-04-25T06:31:37;34.75;29.00;15.50
59179;PMS7003;44956;52.422;20.818;2023-04-25T06:34:40;32.50;28.00;16.00
59179;PMS7003;44956;52.422;20.818;2023-04-25T06:37:43;34.00;33.00;18.75
59179;PMS7003;44956;52.422;20.818;2023-04-25T06:40:46;31.75;29.50;16.75
59179;PMS7003;44956;52.422;20.818;2023-04-25T06:43:50;28.50;28.25;17.50
59179;PMS7003;44956;52.422;20.818;2023-04-25T06:46:59;31.75;28.25;17.25
59179;PMS7003;44956;52.422;20.818;2023-04-25T06:50:02;29.50;26.00;16.75
59179;PMS7003;44956;52.422;20.818;2023-04-25T06:53:06;30.25;29.75;18.00
59179;PMS7003;44956;52.422;20.818;2023-04-25T06:56:11;29.50;27.75;18.00
59179;PMS7003;44956;52.422;20.818;2023-04-25T06:59:35;34.50;30.75;18.75
59179;PMS7003;44956;52.422;20.818;2023-04-25T07:02:39;30.75;29.75;18.00
59179;PMS7003;44956;52.422;20.818;2023-04-25T07:05:42;33.75;28.75;16.50
59179;PMS7003;44956;52.422;20.818;2023-04-25T07:08:47;30.50;28.00;18.75
59179;PMS7003;44956;52.422;20.818;2023-04-25T07:11:50;27.00;26.25;16.25
59179;PMS7003;44956;52.422;20.818;2023-04-25T07:14:53;27.25;27.25;16.50
59179;PMS7003;44956;52.422;20.818;2023-04-25T07:17:55;28.75;24.25;15.00
59179;PMS7003;44956;52.422;20.818;2023-04-25T07:20:58;33.00;27.25;18.25
59179;PMS7003;44956;52.422;20.818;2023-04-25T07:24:02;24.00;23.75;16.00
59179;PMS7003;44956;52.422;20.818;2023-04-25T07:27:09;29.50;28.75;16.50
59179;PMS7003;44956;52.422;20.818;2023-04-25T07:30:29;33.25;29.00;16.25
59179;PMS7003;44956;52.422;20.818;2023-04-25T07:33:33;27.00;27.00;15.00
59179;PMS7003;44956;52.422;20.818;2023-04-25T07:36:36;34.00;28.00;17.00
59179;PMS7003;44956;52.422;20.818;2023-04-25T07:39:39;34.75;32.25;17.25
59179;PMS7003;44956;52.422;20.818;2023-04-25T07:42:41;31.50;27.75;16.50
59179;PMS7003;44956;52.422;20.818;2023-04-25T07:45:46;30.00;28.00;16.00
59179;PMS7003;44956;52.422;20.818;2023-04-25T07:48:51;32.25;30.50;16.75
59179;PMS7003;44956;52.422;20.818;2023-04-25T07:51:56;36.75;33.00;19.50
59179;PMS7003;44956;52.422;20.818;2023-04-25T07:54:59;39.00;36.25;22.00
59179;PMS7003;44956;52.422;20.818;2023-04-25T07:58:15;36.00;31.25;17.75
59179;PMS7003;44956;52.422;20.818;2023-04-25T08:01:20;34.75;28.00;18.00
59179;PMS7003;44956;52.422;20.818;2023-04-25T08:04:36;28.25;28.25;15.00
59179;PMS7003;44956;52.422;20.818;2023-04-25T08:07:43;36.25;28.25;16.50
59179;PMS7003;44956;52.422;20.818;2023-04-25T08:10:46;35.50;33.00;19.75
59179;PMS7003;44956;52.422;20.818;2023-04-25T08:13:52;36.00;32.50;18.00
59179;PMS7003;44956;52.422;20.818;2023-04-25T08:16:55;39.50;31.00;19.00
59179;PMS7003;44956;52.422;20.818;2023-04-25T08:19:59;34.50;29.00;15.50
59179;PMS7003;44956;52.422;20.818;2023-04-25T08:23:04;29.50;25.25;14.00
59179;PMS7003;44956;52.422;20.818;2023-04-25T08:26:28;30.50;29.25;19.00
59179;PMS7003;44956;52.422;20.818;2023-04-25T08:29:32;32.25;30.00;17.25
59179;PMS7003;44956;52.422;20.818;2023-04-25T08:32:35;35.25;31.50;20.25
59179;PMS7003;44956;52.422;20.818;2023-04-25T08:35:54;32.25;31.00;18.00
59179;PMS7003;44956;52.422;20.818;2023-04-25T08:38:57;31.25;26.25;16.75
59179;PMS7003;44956;52.422;20.818;2023-04-25T08:42:02;31.25;26.75;17.00
59179;PMS7003;44956;52.422;20.818;2023-04-25T08:45:11;32.50;31.00;18.00
59179;PMS7003;44956;52.422;20.818;2023-04-25T08:48:16;28.00;28.00;17.00
59179;PMS7003;44956;52.422;20.818;2023-04-25T08:51:23;33.25;31.75;17.50
59179;PMS7003;44956;52.422;20.818;2023-04-25T08:54:27;20.25;19.50;14.50
59179;PMS7003;44956;52.422;20.818;2023-04-25T08:57:42;24.00;24.00;14.25
59179;PMS7003;44956;52.422;20.818;2023-04-25T09:00:46;24.00;21.75;15.00
59179;PMS7003;44956;52.422;20.818;2023-04-25T09:03:51;25.50;24.25;12.00
59179;PMS7003;44956;52.422;20.818;2023-04-25T09:06:53;21.75;20.75;12.00
59179;PMS7003;44956;52.422;20.818;2023-04-25T09:09:57;24.25;22.75;14.25
59179;PMS7003;44956;52.422;20.818;2023-04-25T09:16:18;23.75;20.25;11.50
59179;PMS7003;44956;52.422;20.818;2023-04-25T09:19:50;14.25;14.25;10.50
59179;PMS7003;44956;52.422;20.818;2023-04-25T09:23:06;21.25;21.00;13.75
59179;PMS7003;44956;52.422;20.818;2023-04-25T09:26:15;19.75;18.75;10.50
59179;PMS7003;44956;52.422;20.818;2023-04-25T09:29:19;27.50;24.50;14.00
59179;PMS7003;44956;52.422;20.818;2023-04-25T09:32:32;23.25;20.25;14.00
59179;PMS7003;44956;52.422;20.818;2023-04-25T09:35:36;20.00;19.00;12.25
59179;PMS7003;44956;52.422;20.818;2023-04-25T09:38:44;24.75;23.00;14.00
59179;PMS7003;44956;52.422;20.818;2023-04-25T09:41:59;20.00;19.50;12.00
59179;PMS7003;44956;52.422;20.818;2023-04-25T09:45:01;24.75;20.25;12.25
59179;PMS7003;44956;52.422;20.818;2023-04-25T09:48:10;22.75;20.00;14.00
59179;PMS7003;44956;52.422;20.818;2023-04-25T09:51:17;25.75;22.00;14.00
59179;PMS7003;44956;52.422;20.818;2023-04-25T09:54:21;25.00;24.00;14.25
59179;PMS7003;44956;52.422;20.818;2023-04-25T09:57:28;27.25;27.00;16.00
59179;PMS7003;44956;52.422;20.818;2023-04-25T10:00:32;34.75;29.00;15.75
59179;PMS7003;44956;52.422;20.818;2023-04-25T10:03:48;29.75;25.00;16.25
59179;PMS7003;44956;52.422;20.818;2023-04-25T10:07:09;25.25;25.25;15.25
59179;PMS7003;44956;52.422;20.818;2023-04-25T10:10:12;23.00;21.25;12.00
59179;PMS7003;44956;52.422;20.818;2023-04-25T10:13:16;22.25;21.00;14.00
59179;PMS7003;44956;52.422;20.818;2023-04-25T10:16:18;20.75;20.25;12.00
59179;PMS7003;44956;52.422;20.818;2023-04-25T10:19:23;25.25;20.75;13.00
59179;PMS7003;44956;52.422;20.818;2023-04-25T10:22:31;19.00;16.00;11.00
59179;PMS7003;44956;52.422;20.818;2023-04-25T10:25:37;18.25;16.75;11.00
59179;PMS7003;44956;52.422;20.818;2023-04-25T10:28:56;15.25;15.00;9.50
59179;PMS7003;44956;52.422;20.818;2023-04-25T10:32:05;18.50;16.50;8.50
59179;PMS7003;44956;52.422;20.818;2023-04-25T10:35:15;15.00;15.00;9.00
59179;PMS7003;44956;52.422;20.818;2023-04-25T10:38:19;23.00;16.50;9.25
59179;PMS7003;44956;52.422;20.818;2023-04-25T10:41:22;14.75;14.75;10.25
59179;PMS7003;44956;52.422;20.818;2023-04-25T10:44:28;16.75;13.00;9.00
59179;PMS7003;44956;52.422;20.818;2023-04-25T10:47:35;14.00;14.00;8.25
59179;PMS7003;44956;52.422;20.818;2023-04-25T10:50:39;18.00;14.00;9.50
59179;PMS7003;44956;52.422;20.818;2023-04-25T10:53:43;13.50;11.25;8.25
59179;PMS7003;44956;52.422;20.818;2023-04-25T10:56:48;15.25;14.25;10.00
59179;PMS7003;44956;52.422;20.818;2023-04-25T10:59:50;9.75;9.75;6.25
59179;PMS7003;44956;52.422;20.818;2023-04-25T11:02:57;20.25;15.75;10.50
59179;PMS7003;44956;52.422;20.818;2023-04-25T11:06:00;16.75;14.75;8.25
59179;PMS7003;44956;52.422;20.818;2023-04-25T11:09:08;14.75;12.00;7.00
59179;PMS7003;44956;52.422;20.818;2023-04-25T11:12:14;12.25;11.25;6.25
59179;PMS7003;44956;52.422;20.818;2023-04-25T11:15:18;13.00;11.25;7.00
59179;PMS7003;44956;52.422;20.818;2023-04-25T11:18:25;13.25;11.75;7.75
59179;PMS7003;44956;52.422;20.818;2023-04-25T11:21:29;13.75;12.25;6.25
59179;PMS7003;44956;52.422;20.818;2023-04-25T11:24:34;11.50;11.50;6.25
59179;PMS7003;44956;52.422;20.818;2023-04-25T11:27:49;17.75;14.00;7.00
59179;PMS7003;44956;52.422;20.818;2023-04-25T11:30:55;16.25;14.00;7.50
59179;PMS7003;44956;52.422;20.818;2023-04-25T11:33:58;15.00;11.75;8.00
59179;PMS7003;44956;52.422;20.818;2023-04-25T11:37:01;15.25;11.25;7.75
59179;PMS7003;44956;52.422;20.818;2023-04-25T11:40:05;12.00;10.25;7.25
59179;PMS7003;44956;52.422;20.818;2023-04-25T11:43:08;8.00;7.50;7.00
59179;PMS7003;44956;52.422;20.818;2023-04-25T11:46:11;9.75;9.50;6.75
59179;PMS7003;44956;52.422;20.818;2023-04-25T11:49:14;11.75;10.50;7.75
59179;PMS7003;44956;52.422;20.818;2023-04-25T11:52:17;12.00;11.25;8.25
59179;PMS7003;44956;52.422;20.818;2023-04-25T11:55:20;11.50;10.50;7.50
59179;PMS7003;44956;52.422;20.818;2023-04-25T11:58:22;9.50;9.50;6.25
59179;PMS7003;44956;52.422;20.818;2023-04-25T12:01:29;11.50;11.00;6.75
59179;PMS7003;44956;52.422;20.818;2023-04-25T12:04:37;10.25;10.25;6.50
59179;PMS7003;44956;52.422;20.818;2023-04-25T12:07:40;15.75;11.50;7.00
59179;PMS7003;44956;52.422;20.818;2023-04-25T12:10:44;15.00;12.00;7.50
59179;PMS7003;44956;52.422;20.818;2023-04-25T12:13:51;12.00;10.75;7.00
59179;PMS7003;44956;52.422;20.818;2023-04-25T12:16:55;13.50;10.00;6.25
59179;PMS7003;44956;52.422;20.818;2023-04-25T12:20:00;11.25;11.25;7.25
59179;PMS7003;44956;52.422;20.818;2023-04-25T12:23:09;13.75;11.50;7.00
59179;PMS7003;44956;52.422;20.818;2023-04-25T12:26:13;10.75;10.75;6.00
59179;PMS7003;44956;52.422;20.818;2023-04-25T12:29:17;13.25;11.75;7.00
59179;PMS7003;44956;52.422;20.818;2023-04-25T12:32:24;12.50;11.00;7.00
59179;PMS7003;44956;52.422;20.818;2023-04-25T12:35:28;8.00;8.00;7.00
59179;PMS7003;44956;52.422;20.818;2023-04-25T12:38:31;11.50;10.00;6.00
59179;PMS7003;44956;52.422;20.818;2023-04-25T12:41:34;11.75;11.75;7.25
59179;PMS7003;44956;52.422;20.818;2023-04-25T12:44:37;12.00;10.25;6.25
59179;PMS7003;44956;52.422;20.818;2023-04-25T12:47:40;9.50;8.00;6.25
59179;PMS7003;44956;52.422;20.818;2023-04-25T12:50:43;11.00;10.00;6.00
59179;PMS7003;44956;52.422;20.818;2023-04-25T12:53:46;9.50;8.75;6.00
59179;PMS7003;44956;52.422;20.818;2023-04-25T12:56:48;12.00;10.00;6.00
59179;PMS7003;44956;52.422;20.818;2023-04-25T12:59:52;9.50;8.25;5.75
59179;PMS7003;44956;52.422;20.818;2023-04-25T13:02:55;10.00;10.00;7.00
59179;PMS7003;44956;52.422;20.818;2023-04-25T13:05:58;10.00;8.75;6.00
59179;PMS7003;44956;52.422;20.818;2023-04-25T13:09:00;15.00;15.00;8.00
59179;PMS7003;44956;52.422;20.818;2023-04-25T13:12:03;13.75;12.00;6.75
59179;PMS7003;44956;52.422;20.818;2023-04-25T13:15:07;12.75;10.75;7.75
59179;PMS7003;44956;52.422;20.818;2023-04-25T13:18:11;11.75;11.75;7.00
59179;PMS7003;44956;52.422;20.818;2023-04-25T13:21:14;13.00;10.00;6.75
59179;PMS7003;44956;52.422;20.818;2023-04-25T13:24:17;11.00;10.00;7.00
59179;PMS7003;44956;52.422;20.818;2023-04-25T13:27:19;10.50;10.25;6.75
59179;PMS7003;44956;52.422;20.818;2023-04-25T13:30:22;11.75;11.75;7.00
59179;PMS7003;44956;52.422;20.818;2023-04-25T13:33:24;11.50;11.50;8.00
59179;PMS7003;44956;52.422;20.818;2023-04-25T13:36:28;15.00;13.75;8.50
59179;PMS7003;44956;52.422;20.818;2023-04-25T13:39:30;15.00;13.00;7.00
59179;PMS7003;44956;52.422;20.818;2023-04-25T13:42:33;16.00;12.75;8.00
59179;PMS7003;44956;52.422;20.818;2023-04-25T13:45:36;15.25;13.50;8.00
59179;PMS7003;44956;52.422;20.818;2023-04-25T13:48:39;16.00;12.75;10.00
59179;PMS7003;44956;52.422;20.818;2023-04-25T13:52:01;13.00;13.00;10.00
59179;PMS7003;44956;52.422;20.818;2023-04-25T13:55:03;12.00;12.00;8.00
59179;PMS7003;44956;52.422;20.818;2023-04-25T13:58:14;14.25;13.50;8.50
59179;PMS7003;44956;52.422;20.818;2023-04-25T14:01:32;12.75;11.75;7.25
59179;PMS7003;44956;52.422;20.818;2023-04-25T14:04:40;15.25;12.75;7.75
59179;PMS7003;44956;52.422;20.818;2023-04-25T14:07:56;12.50;11.25;6.75
59179;PMS7003;44956;52.422;20.818;2023-04-25T14:11:06;13.50;13.50;9.00
59179;PMS7003;44956;52.422;20.818;2023-04-25T14:14:12;15.50;12.50;8.00
59179;PMS7003;44956;52.422;20.818;2023-04-25T14:17:19;15.75;13.75;10.00
59179;PMS7003;44956;52.422;20.818;2023-04-25T14:20:23;17.25;17.25;10.00
59179;PMS7003;44956;52.422;20.818;2023-04-25T14:23:26;12.00;11.50;8.00
59179;PMS7003;44956;52.422;20.818;2023-04-25T14:26:34;12.75;12.75;9.50
59179;PMS7003;44956;52.422;20.818;2023-04-25T14:29:42;21.00;18.25;10.50
59179;PMS7003;44956;52.422;20.818;2023-04-25T14:33:00;15.50;14.00;8.00
59179;PMS7003;44956;52.422;20.818;2023-04-25T14:36:11;16.50;14.25;11.00
59179;PMS7003;44956;52.422;20.818;2023-04-25T14:39:18;12.75;11.50;7.75
59179;PMS7003;44956;52.422;20.818;2023-04-25T14:42:25;19.00;17.25;11.00
59179;PMS7003;44956;52.422;20.818;2023-04-25T14:45:28;13.00;13.00;9.75
59179;PMS7003;44956;52.422;20.818;2023-04-25T14:48:30;10.00;9.50;6.00
59179;PMS7003;44956;52.422;20.818;2023-04-25T14:51:37;12.00;12.00;7.00
59179;PMS7003;44956;52.422;20.818;2023-04-25T14:54:39;14.00;13.75;8.00
59179;PMS7003;44956;52.422;20.818;2023-04-25T14:57:42;9.75;8.25;5.75
59179;PMS7003;44956;52.422;20.818;2023-04-25T15:00:45;15.00;11.00;6.75
59179;PMS7003;44956;52.422;20.818;2023-04-25T15:03:49;11.25;11.25;7.00
59179;PMS7003;44956;52.422;20.818;2023-04-25T15:06:53;11.00;10.75;8.00
59179;PMS7003;44956;52.422;20.818;2023-04-25T15:09:57;15.50;14.00;8.00
59179;PMS7003;44956;52.422;20.818;2023-04-25T15:13:04;15.00;12.75;8.25
59179;PMS7003;44956;52.422;20.818;2023-04-25T15:16:07;12.75;12.75;7.25
59179;PMS7003;44956;52.422;20.818;2023-04-25T15:19:10;15.75;14.25;9.50
59179;PMS7003;44956;52.422;20.818;2023-04-25T15:22:13;11.00;10.50;7.50
59179;PMS7003;44956;52.422;20.818;2023-04-25T15:25:15;14.75;13.25;6.75
59179;PMS7003;44956;52.422;20.818;2023-04-25T15:28:21;11.75;11.75;6.50
59179;PMS7003;44956;52.422;20.818;2023-04-25T15:31:23;10.75;10.25;7.75
59179;PMS7003;44956;52.422;20.818;2023-04-25T15:34:26;12.00;12.00;8.25
59179;PMS7003;44956;52.422;20.818;2023-04-25T15:37:29;12.25;11.25;7.75
59179;PMS7003;44956;52.422;20.818;2023-04-25T15:40:32;15.00;11.75;9.25
59179;PMS7003;44956;52.422;20.818;2023-04-25T15:43:35;17.25;16.50;10.00
59179;PMS7003;44956;52.422;20.818;2023-04-25T15:46:41;13.50;12.75;9.00
59179;PMS7003;44956;52.422;20.818;2023-04-25T15:49:45;15.25;14.25;9.75
59179;PMS7003;44956;52.422;20.818;2023-04-25T15:52:48;16.00;16.00;9.75
59179;PMS7003;44956;52.422;20.818;2023-04-25T15:55:54;20.00;17.75;10.00
59179;PMS7003;44956;52.422;20.818;2023-04-25T15:58:57;16.50;15.00;9.00
59179;PMS7003;44956;52.422;20.818;2023-04-25T16:01:59;21.50;13.25;6.75
59179;PMS7003;44956;52.422;20.818;2023-04-25T16:05:02;17.00;16.25;10.00
59179;PMS7003;44956;52.422;20.818;2023-04-25T16:08:05;16.75;16.75;11.00
59179;PMS7003;44956;52.422;20.818;2023-04-25T16:11:08;19.00;12.75;9.25
59179;PMS7003;44956;52.422;20.818;2023-04-25T16:14:10;22.75;18.00;9.75
59179;PMS7003;44956;52.422;20.818;2023-04-25T16:17:14;16.75;15.75;7.50
59179;PMS7003;44956;52.422;20.818;2023-04-25T16:20:17;18.00;15.00;10.00
59179;PMS7003;44956;52.422;20.818;2023-04-25T16:23:20;20.25;18.25;9.50
59179;PMS7003;44956;52.422;20.818;2023-04-25T16:26:23;16.75;16.00;9.00
59179;PMS7003;44956;52.422;20.818;2023-04-25T16:29:25;18.00;17.25;10.00
59179;PMS7003;44956;52.422;20.818;2023-04-25T16:32:28;17.00;17.00;10.00
59179;PMS7003;44956;52.422;20.818;2023-04-25T16:35:31;14.50;13.75;6.75
59179;PMS7003;44956;52.422;20.818;2023-04-25T16:38:34;16.25;13.00;5.75
59179;PMS7003;44956;52.422;20.818;2023-04-25T16:41:37;24.50;21.50;13.00
59179;PMS7003;44956;52.422;20.818;2023-04-25T16:44:40;14.50;14.50;10.50
59179;PMS7003;44956;52.422;20.818;2023-04-25T16:47:42;20.25;17.75;10.00
59179;PMS7003;44956;52.422;20.818;2023-04-25T16:50:45;22.75;18.25;10.00
59179;PMS7003;44956;52.422;20.818;2023-04-25T16:53:48;18.00;18.00;11.50
59179;PMS7003;44956;52.422;20.818;2023-04-25T16:56:51;21.00;18.75;10.75
59179;PMS7003;44956;52.422;20.818;2023-04-25T16:59:54;21.75;17.50;11.00
59179;PMS7003;44956;52.422;20.818;2023-04-25T17:02:58;21.75;21.00;11.00
59179;PMS7003;44956;52.422;20.818;2023-04-25T17:06:01;18.00;16.75;10.00
59179;PMS7003;44956;52.422;20.818;2023-04-25T17:09:05;22.25;18.25;10.75
59179;PMS7003;44956;52.422;20.818;2023-04-25T17:12:08;17.50;16.00;9.50
59179;PMS7003;44956;52.422;20.818;2023-04-25T17:15:11;22.75;22.75;13.00
59179;PMS7003;44956;52.422;20.818;2023-04-25T17:18:14;21.00;20.75;12.50